Time;durP1;ratioP1;P1;durP2;ratioP2;P2;SDS_P1;SDS_P2;PMS_P1;PMS_P2;Temp;Humidity;BMP_temperature;BMP_pressure;BME280_temperature;BME280_humidity;BME280_pressure;Samples;Min_cycle;Max_cycle;Signal;HPM_P1;HPM_P2
2022/10/06 00:02:01;;;;;;;6.45;2.60;;;;;;;16.59;100.00;100832.78;5220725;28;20128;-75
2022/10/06 00:04:32;;;;;;;5.35;2.42;;;;;;;16.70;100.00;100840.97;5234350;28;20024;-75
2022/10/06 00:07:02;;;;;;;3.92;2.13;;;;;;;16.60;100.00;100839.81;5221603;28;20032;-75
2022/10/06 00:09:32;;;;;;;5.18;2.30;;;;;;;16.67;100.00;100842.91;5241874;28;20048;-75
2022/10/06 00:12:03;;;;;;;6.32;2.42;;;;;;;16.71;100.00;100833.91;5215956;28;20078;-75
2022/10/06 00:14:34;;;;;;;4.05;2.17;;;;;;;16.69;100.00;100823.44;5215105;28;20505;-75
2022/10/06 00:17:04;;;;;;;9.20;2.83;;;;;;;16.67;100.00;100837.66;5240448;28;20032;-75
2022/10/06 00:19:35;;;;;;;5.13;2.45;;;;;;;16.69;100.00;100834.00;5240974;28;20085;-75
2022/10/06 00:22:05;;;;;;;7.00;2.35;;;;;;;16.74;100.00;100823.19;5241659;28;20378;-75
2022/10/06 00:24:35;;;;;;;4.93;2.10;;;;;;;16.89;100.00;100820.50;5239873;28;20036;-75
2022/10/06 00:27:05;;;;;;;4.93;2.50;;;;;;;16.91;100.00;100827.41;5241097;28;20499;-75
2022/10/06 00:29:36;;;;;;;4.18;2.30;;;;;;;16.87;100.00;100838.22;5241200;28;20031;-75
2022/10/06 00:32:08;;;;;;;8.00;3.00;;;;;;;16.83;100.00;100849.91;5223476;28;20836;-75
2022/10/06 00:34:38;;;;;;;5.97;3.00;;;;;;;16.86;100.00;100847.09;5223157;28;20029;-75
2022/10/06 00:37:08;;;;;;;4.55;2.97;;;;;;;16.86;100.00;100849.72;5241076;28;20036;-75
2022/10/06 00:39:39;;;;;;;6.93;2.72;;;;;;;16.94;100.00;100847.53;5230981;28;20017;-75
2022/10/06 00:42:25;;;;;;;5.57;2.88;;;;;;;16.97;100.00;100848.19;5240508;28;20025;-75
2022/10/06 00:44:58;;;;;;;8.07;2.70;;;;;;;16.97;100.00;100866.66;5238944;28;20044;-75
2022/10/06 00:47:31;;;;;;;4.47;2.50;;;;;;;17.04;100.00;100853.97;5240756;28;20028;-75
2022/10/06 00:50:02;;;;;;;4.63;2.60;;;;;;;17.08;100.00;100866.03;5241389;28;20021;-75
2022/10/06 00:52:32;;;;;;;5.07;2.20;;;;;;;17.05;100.00;100875.00;5241035;28;20035;-75
2022/10/06 00:55:03;;;;;;;5.85;2.30;;;;;;;17.16;100.00;100874.41;5214803;28;20415;-76
2022/10/06 00:57:34;;;;;;;5.80;2.03;;;;;;;17.12;100.00;100870.22;5217473;28;20032;-75
2022/10/06 01:00:07;;;;;;;9.32;2.40;;;;;;;17.14;100.00;100876.28;5241244;28;20103;-75
2022/10/06 01:02:42;;;;;;;4.35;2.08;;;;;;;17.11;100.00;100884.38;5240758;28;20020;-75
2022/10/06 01:05:23;;;;;;;4.43;1.90;;;;;;;17.07;100.00;100880.19;5241353;28;20021;-75
2022/10/06 01:07:53;;;;;;;4.78;2.30;;;;;;;17.15;100.00;100875.34;5240639;28;20030;-75
2022/10/06 01:10:23;;;;;;;4.65;1.80;;;;;;;17.16;100.00;100893.72;5241351;28;20191;-74
2022/10/06 01:12:56;;;;;;;5.65;1.85;;;;;;;17.10;100.00;100902.00;5240856;28;20158;-75
2022/10/06 01:15:27;;;;;;;4.28;1.67;;;;;;;17.10;100.00;100917.84;5240105;28;20033;-75
2022/10/06 01:18:06;;;;;;;5.30;1.98;;;;;;;17.05;100.00;100958.66;5242092;28;20510;-76
2022/10/06 01:20:39;;;;;;;2.78;1.00;;;;;;;17.00;100.00;100966.84;5244303;28;20040;-75
2022/10/06 01:23:10;;;;;;;0.65;0.50;;;;;;;16.47;100.00;100989.19;5245255;28;20110;-75
2022/10/06 01:25:41;;;;;;;1.30;0.40;;;;;;;16.02;100.00;101004.72;5234666;28;20031;-75
2022/10/06 01:28:13;;;;;;;0.73;0.40;;;;;;;15.70;100.00;101020.44;5243132;28;20382;-75
2022/10/06 01:30:52;;;;;;;2.30;0.50;;;;;;;15.49;100.00;101019.69;5244544;28;20020;-75
2022/10/06 01:33:22;;;;;;;1.80;0.55;;;;;;;15.29;100.00;101038.25;5244571;28;20117;-75
2022/10/06 01:35:53;;;;;;;5.03;0.30;;;;;;;15.04;100.00;101058.69;5244358;28;20121;-75
2022/10/06 01:38:23;;;;;;;2.67;0.40;;;;;;;14.95;100.00;101060.91;5244212;28;20080;-75
2022/10/06 01:40:53;;;;;;;1.15;0.40;;;;;;;14.82;100.00;101058.91;5243871;28;20020;-75
2022/10/06 01:43:24;;;;;;;1.67;0.55;;;;;;;14.76;100.00;101057.41;5226203;28;20036;-75
2022/10/06 01:45:56;;;;;;;3.22;0.60;;;;;;;14.75;100.00;101065.38;5244160;28;20020;-75
2022/10/06 01:48:26;;;;;;;1.45;0.60;;;;;;;14.67;100.00;101068.34;5225135;28;20125;-75
2022/10/06 01:50:56;;;;;;;2.08;0.60;;;;;;;14.76;100.00;101074.97;5244292;28;20537;-74
2022/10/06 01:53:27;;;;;;;1.20;0.50;;;;;;;14.70;100.00;101084.00;5243931;28;20115;-75
2022/10/06 01:55:58;;;;;;;1.35;0.50;;;;;;;14.70;100.00;101091.03;5243941;28;20048;-75
2022/10/06 01:58:29;;;;;;;0.90;0.50;;;;;;;14.70;100.00;101098.91;5243256;28;20125;-75
2022/10/06 02:01:06;;;;;;;1.17;0.60;;;;;;;14.62;100.00;101104.50;5243626;28;20048;-75
2022/10/06 02:03:38;;;;;;;2.25;0.90;;;;;;;14.57;100.00;101110.91;5225944;28;20028;-75
2022/10/06 02:06:09;;;;;;;1.92;0.95;;;;;;;14.70;100.00;101114.69;5243869;28;20031;-74
2022/10/06 02:08:39;;;;;;;3.00;1.20;;;;;;;14.56;100.00;101106.59;5225615;28;20024;-75
2022/10/06 02:11:10;;;;;;;3.03;0.80;;;;;;;14.60;100.00;101100.25;5243998;28;20513;-75
2022/10/06 02:13:41;;;;;;;0.60;0.50;;;;;;;14.47;100.00;101104.34;5239288;28;20036;-75
2022/10/06 02:16:12;;;;;;;2.85;0.60;;;;;;;14.37;100.00;101106.50;5242801;28;20494;-72
2022/10/06 02:18:43;;;;;;;1.52;0.40;;;;;;;14.33;100.00;101119.84;5242875;28;20020;-75
2022/10/06 02:21:16;;;;;;;0.88;0.30;;;;;;;14.43;100.00;101114.13;5243432;28;20043;-75
2022/10/06 02:23:47;;;;;;;1.80;0.40;;;;;;;14.40;100.00;101103.72;5243682;28;20043;-74
2022/10/06 02:26:18;;;;;;;1.73;0.20;;;;;;;14.37;100.00;101108.25;5242953;28;20478;-75
2022/10/06 02:28:51;;;;;;;6.03;0.40;;;;;;;14.37;100.00;101131.94;5242317;28;20087;-75
2022/10/06 02:31:21;;;;;;;0.98;0.20;;;;;;;14.28;100.00;101129.69;5242954;28;20028;-75
2022/10/06 02:33:52;;;;;;;2.97;0.30;;;;;;;14.34;100.00;101142.59;5243399;28;20448;-75
2022/10/06 02:36:22;;;;;;;3.17;0.60;;;;;;;14.18;100.00;101141.50;5242654;28;20556;-75
2022/10/06 02:38:53;;;;;;;0.73;0.30;;;;;;;14.25;100.00;101143.81;5242715;28;20021;-75
2022/10/06 02:41:24;;;;;;;1.75;0.30;;;;;;;14.26;100.00;101142.06;5243068;28;20032;-75
2022/10/06 02:43:54;;;;;;;1.15;0.20;;;;;;;14.21;100.00;101158.03;5224852;28;20424;-75
2022/10/06 02:46:25;;;;;;;1.73;0.30;;;;;;;14.42;100.00;101153.66;5241242;28;20024;-75
2022/10/06 02:48:55;;;;;;;1.15;0.30;;;;;;;14.24;100.00;101163.16;5216554;28;20020;-74
2022/10/06 02:51:25;;;;;;;1.35;0.30;;;;;;;14.27;100.00;101168.28;5221040;28;20086;-74
2022/10/06 02:53:56;;;;;;;1.63;0.30;;;;;;;14.33;100.00;101164.53;5241458;28;20025;-75
2022/10/06 02:56:26;;;;;;;0.85;0.20;;;;;;;14.28;100.00;101169.13;5242385;28;20056;-72
2022/10/06 02:58:56;;;;;;;0.80;0.25;;;;;;;14.33;100.00;101175.94;5224807;28;20024;-74
2022/10/06 03:01:27;;;;;;;1.45;0.30;;;;;;;14.30;100.00;101183.94;5243202;28;20055;-75
2022/10/06 03:03:58;;;;;;;0.40;0.20;;;;;;;14.40;100.00;101189.69;5242943;28;20035;-75
2022/10/06 03:06:29;;;;;;;1.02;0.20;;;;;;;14.41;100.00;101194.03;5242209;28;20081;-75
2022/10/06 03:09:02;;;;;;;1.75;0.50;;;;;;;14.32;100.00;101202.28;5242574;28;20071;-75
2022/10/06 03:11:35;;;;;;;1.05;0.28;;;;;;;14.37;100.00;101206.44;5242563;28;20021;-75
2022/10/06 03:14:06;;;;;;;2.17;0.25;;;;;;;14.28;100.00;101221.72;5241990;28;20330;-72
2022/10/06 03:16:41;;;;;;;0.95;0.30;;;;;;;14.37;100.00;101223.97;5223591;28;20031;-75
2022/10/06 03:19:11;;;;;;;1.85;0.35;;;;;;;14.31;100.00;101232.13;5241808;28;20024;-74
2022/10/06 03:21:43;;;;;;;1.48;0.30;;;;;;;14.30;100.00;101231.28;5215814;28;20078;-75
2022/10/06 03:24:14;;;;;;;2.67;0.43;;;;;;;14.26;100.00;101234.94;5238051;28;20028;-74
2022/10/06 03:26:49;;;;;;;3.83;0.40;;;;;;;14.27;100.00;101235.81;5241908;28;20020;-75
2022/10/06 03:29:19;;;;;;;1.77;0.40;;;;;;;14.21;100.00;101246.53;5242214;28;20256;-74
2022/10/06 03:31:49;;;;;;;4.30;0.50;;;;;;;14.17;100.00;101247.59;5216020;28;20479;-74
2022/10/06 03:34:20;;;;;;;2.70;0.55;;;;;;;14.22;100.00;101261.44;5240854;28;20024;-75
2022/10/06 03:36:50;;;;;;;3.50;0.57;;;;;;;14.12;100.00;101265.28;5241756;28;20462;-75
2022/10/06 03:39:20;;;;;;;3.60;0.80;;;;;;;14.14;100.00;101266.94;5242135;28;20024;-75
2022/10/06 03:41:51;;;;;;;3.80;0.57;;;;;;;14.10;100.00;101264.50;5241688;28;20031;-75
2022/10/06 03:44:21;;;;;;;6.50;0.70;;;;;;;14.02;100.00;101275.31;5223875;28;20063;-75
2022/10/06 03:46:51;;;;;;;3.55;0.52;;;;;;;13.95;100.00;101280.84;5241259;28;20486;-74
2022/10/06 03:49:22;;;;;;;4.13;1.02;;;;;;;13.97;100.00;101281.66;5223663;28;20037;-75
2022/10/06 03:51:52;;;;;;;4.00;0.73;;;;;;;14.01;100.00;101299.88;5242217;28;20462;-75
2022/10/06 03:54:29;;;;;;;6.35;0.82;;;;;;;13.87;100.00;101299.53;5242523;28;20031;-74
2022/10/06 03:56:59;;;;;;;5.05;0.70;;;;;;;13.85;100.00;101300.50;5241518;28;20035;-75
2022/10/06 03:59:33;;;;;;;2.30;0.68;;;;;;;13.89;100.00;101299.50;5223810;28;20032;-74
2022/10/06 04:02:04;;;;;;;3.08;0.70;;;;;;;13.85;100.00;101300.50;5241278;28;20024;-74
2022/10/06 04:04:34;;;;;;;3.47;0.82;;;;;;;13.82;100.00;101308.50;5219652;28;20255;-75
2022/10/06 04:07:04;;;;;;;3.75;0.88;;;;;;;13.78;100.00;101320.03;5241325;28;20371;-75
2022/10/06 04:09:35;;;;;;;7.15;0.90;;;;;;;13.81;100.00;101317.28;5223759;28;20036;-75
2022/10/06 04:12:05;;;;;;;6.00;0.95;;;;;;;13.77;100.00;101319.16;5224127;28;20252;-74
2022/10/06 04:14:36;;;;;;;7.70;0.85;;;;;;;13.74;100.00;101328.94;5242367;28;20024;-74
2022/10/06 04:17:06;;;;;;;3.53;0.90;;;;;;;13.69;100.00;101331.75;5240510;28;20469;-74
2022/10/06 04:19:36;;;;;;;4.82;0.80;;;;;;;13.66;100.00;101334.47;5241552;28;20032;-73
2022/10/06 04:22:07;;;;;;;6.93;1.10;;;;;;;13.62;100.00;101335.50;5241779;28;20492;-73
2022/10/06 04:24:37;;;;;;;3.88;0.85;;;;;;;13.59;100.00;101345.25;5241391;28;20023;-73
2022/10/06 04:29:57;;;;;;;7.53;1.10;;;;;;;13.48;100.00;101352.66;5239009;28;20087;-73
2022/10/06 04:32:28;;;;;;;7.18;1.10;;;;;;;13.48;100.00;101355.28;5241242;28;20029;-73
2022/10/06 04:34:58;;;;;;;5.47;1.20;;;;;;;13.48;100.00;101355.28;5241786;28;20044;-73
2022/10/06 04:37:29;;;;;;;7.53;0.90;;;;;;;13.40;100.00;101357.31;5241013;28;20493;-73
2022/10/06 04:39:59;;;;;;;7.78;1.23;;;;;;;13.40;100.00;101359.94;5241497;28;20029;-73
2022/10/06 04:42:30;;;;;;;6.22;1.00;;;;;;;13.43;100.00;101365.94;5241694;28;20032;-73
2022/10/06 04:45:00;;;;;;;5.82;1.17;;;;;;;13.42;100.00;101373.88;5241160;28;20036;-73
2022/10/06 04:47:30;;;;;;;6.38;0.80;;;;;;;13.38;100.00;101362.63;5240639;28;20023;-73
2022/10/06 04:50:01;;;;;;;5.60;1.10;;;;;;;13.36;100.00;101361.81;5223253;28;20026;-73
2022/10/06 04:52:31;;;;;;;4.60;0.90;;;;;;;13.26;100.00;101377.94;5241877;28;20535;-73
2022/10/06 04:55:02;;;;;;;9.75;1.13;;;;;;;13.26;100.00;101388.44;5243557;28;20025;-71
2022/10/06 04:57:32;;;;;;;6.22;1.27;;;;;;;13.28;100.00;101384.88;5244410;28;20536;-73
2022/10/06 05:00:21;;;;;;;6.38;0.98;;;;;;;13.35;100.00;101396.00;5217436;28;20030;-73
2022/10/06 05:02:54;;;;;;;6.45;1.30;;;;;;;13.29;100.00;101394.47;5245669;28;20039;-73
2022/10/06 05:05:24;;;;;;;4.90;0.98;;;;;;;13.24;100.00;101398.97;5245085;28;20518;-73
2022/10/06 05:07:54;;;;;;;7.03;1.15;;;;;;;13.23;100.00;101414.78;5244390;28;20035;-74
2022/10/06 05:10:27;;;;;;;3.60;1.00;;;;;;;13.12;100.00;101424.78;5244919;28;20047;-73
2022/10/06 05:12:58;;;;;;;7.10;1.25;;;;;;;13.20;100.00;101431.50;5244861;28;20046;-74
2022/10/06 05:15:28;;;;;;;9.75;1.65;;;;;;;13.10;100.00;101430.06;5244386;28;20107;-73
2022/10/06 05:17:58;;;;;;;7.25;1.30;;;;;;;13.08;100.00;101441.53;5224943;28;20469;-73
2022/10/06 05:20:28;;;;;;;6.65;1.20;;;;;;;13.02;100.00;101439.09;5245532;28;20108;-73
2022/10/06 05:22:59;;;;;;;8.25;1.30;;;;;;;13.07;100.00;101450.31;5219106;28;20024;-74
2022/10/06 05:25:29;;;;;;;5.57;1.30;;;;;;;13.07;100.00;101460.81;5242980;28;20056;-73
2022/10/06 05:27:59;;;;;;;11.10;1.35;;;;;;;13.01;100.00;101468.88;5244544;28;20405;-73
2022/10/06 05:30:30;;;;;;;5.25;1.15;;;;;;;13.01;100.00;101469.75;5244396;28;20123;-73
2022/10/06 05:33:00;;;;;;;8.45;1.75;;;;;;;13.07;100.00;101487.06;5243526;28;20432;-73
2022/10/06 05:35:30;;;;;;;9.13;1.27;;;;;;;13.06;100.00;101491.44;5244500;28;20020;-74
2022/10/06 05:38:00;;;;;;;9.82;1.20;;;;;;;13.05;100.00;101486.25;5244042;28;20031;-74
2022/10/06 05:40:31;;;;;;;7.22;1.35;;;;;;;12.98;100.00;101498.72;5243728;28;20032;-74
2022/10/06 05:43:01;;;;;;;6.70;1.00;;;;;;;13.17;100.00;101491.97;5246833;28;20074;-74
2022/10/06 05:45:31;;;;;;;4.95;1.00;;;;;;;13.20;100.00;101509.41;5241338;28;20046;-74
2022/10/06 05:48:02;;;;;;;11.23;1.40;;;;;;;13.20;100.00;101512.03;5241106;28;20017;-74
2022/10/06 05:50:32;;;;;;;8.32;1.48;;;;;;;13.41;100.00;101530.56;5241509;28;20020;-74
2022/10/06 05:53:02;;;;;;;8.70;1.25;;;;;;;13.32;100.00;101532.63;5241318;28;20324;-74
2022/10/06 05:55:33;;;;;;;6.35;1.20;;;;;;;13.33;100.00;101543.09;5247782;22;20045;-73
2022/10/06 05:58:03;;;;;;;6.53;1.10;;;;;;;13.48;100.00;101549.63;5218671;28;20029;-73
2022/10/06 06:00:33;;;;;;;4.45;1.13;;;;;;;13.58;100.00;101553.69;5223009;28;20029;-73
2022/10/06 06:03:08;;;;;;;4.82;1.20;;;;;;;13.63;100.00;101562.25;5223316;28;20025;-73
2022/10/06 06:05:41;;;;;;;8.25;1.48;;;;;;;13.59;100.00;101565.91;5200916;28;20053;-73
2022/10/06 06:08:12;;;;;;;6.78;1.40;;;;;;;13.65;100.00;101571.81;5179562;28;20033;-73
2022/10/06 06:10:42;;;;;;;6.13;1.20;;;;;;;13.70;100.00;101571.66;5202875;28;20029;-73
2022/10/06 06:13:19;;;;;;;6.97;1.40;;;;;;;13.78;100.00;101577.53;5202689;28;20104;-73
2022/10/06 06:16:03;;;;;;;3.35;0.93;;;;;;;13.80;100.00;101591.47;5202741;28;20053;-73
2022/10/06 06:18:36;;;;;;;7.35;1.10;;;;;;;13.77;100.00;101591.59;5201426;28;20086;-73
2022/10/06 06:21:07;;;;;;;6.03;1.40;;;;;;;13.72;100.00;101594.34;5202862;28;20022;-73
2022/10/06 06:23:41;;;;;;;5.72;1.23;;;;;;;13.73;100.00;101600.50;5201794;28;20671;-73
2022/10/06 06:26:14;;;;;;;6.30;1.38;;;;;;;13.93;100.00;101603.31;5201940;28;20017;-72
2022/10/06 06:28:49;;;;;;;5.65;1.30;;;;;;;14.00;100.00;101604.81;5199806;28;20033;-73
2022/10/06 06:31:25;;;;;;;9.77;1.52;;;;;;;14.05;100.00;101618.69;5202448;28;20025;-73
2022/10/06 06:33:57;;;;;;;7.63;1.30;;;;;;;13.99;100.00;101613.63;5202740;28;20120;-73
2022/10/06 06:36:34;;;;;;;5.15;1.20;;;;;;;14.06;100.00;101615.16;5201843;28;20438;-72
2022/10/06 06:39:09;;;;;;;7.38;1.15;;;;;;;14.12;100.00;101626.31;5201917;28;20100;-73
2022/10/06 06:41:43;;;;;;;10.05;1.65;;;;;;;14.07;100.00;101636.13;5202091;28;20044;-74
2022/10/06 06:44:14;;;;;;;5.97;1.13;;;;;;;13.92;100.00;101628.72;5201734;28;20041;-73
2022/10/06 06:46:47;;;;;;;9.07;1.83;;;;;;;13.96;100.00;101645.28;5200172;28;20289;-73
2022/10/06 06:49:19;;;;;;;5.93;1.13;;;;;;;13.96;100.00;101635.63;5200182;28;20025;-73
2022/10/06 06:51:49;;;;;;;7.20;1.42;;;;;;;14.01;100.00;101653.84;5201350;28;20049;-73
2022/10/06 06:54:20;;;;;;;6.53;1.50;;;;;;;14.01;100.00;101651.22;5201773;28;20459;-73
2022/10/06 06:56:50;;;;;;;7.93;1.40;;;;;;;13.82;100.00;101658.00;5201116;28;20025;-73
2022/10/06 06:59:21;;;;;;;12.50;1.30;;;;;;;13.96;100.00;101666.31;5201609;28;20040;-73
2022/10/06 07:01:51;;;;;;;4.78;1.00;;;;;;;13.89;100.00;101684.03;5201600;28;20048;-73
2022/10/06 07:04:21;;;;;;;6.65;1.25;;;;;;;13.74;100.00;101681.03;5201019;28;20049;-73
2022/10/06 07:06:57;;;;;;;8.32;1.50;;;;;;;13.92;100.00;101677.81;5200684;28;20104;-73
2022/10/06 07:09:28;;;;;;;7.40;1.42;;;;;;;14.22;100.00;101684.78;5201454;28;20249;-73
2022/10/06 07:11:58;;;;;;;8.00;1.25;;;;;;;14.74;99.30;101696.09;5201886;28;20029;-73
2022/10/06 07:14:28;;;;;;;14.50;1.65;;;;;;;15.12;94.21;101695.59;5201499;28;20029;-73
2022/10/06 07:25:24;;;;;;;7.88;1.30;;;;;;;20.17;70.51;101707.88;5197504;28;20056;-74
2022/10/06 07:27:54;;;;;;;7.82;1.42;;;;;;;20.75;68.33;101714.16;5200632;28;20023;-74
2022/10/06 07:30:27;;;;;;;6.18;1.27;;;;;;;20.57;68.19;101720.56;5200788;28;20108;-74
2022/10/06 07:32:57;;;;;;;10.13;1.48;;;;;;;21.58;66.70;101712.56;5200946;28;20037;-73
2022/10/06 07:35:27;;;;;;;6.05;1.40;;;;;;;20.51;66.62;101726.19;5201204;28;20040;-74
2022/10/06 07:38:04;;;;;;;6.73;1.40;;;;;;;21.50;66.22;101730.78;5200430;28;20036;-74
2022/10/06 07:40:36;;;;;;;6.03;1.30;;;;;;;20.68;65.99;101739.38;5200646;28;20359;-73
2022/10/06 07:43:06;;;;;;;5.90;1.30;;;;;;;19.99;67.29;101747.81;5200038;28;20438;-74
2022/10/06 07:45:37;;;;;;;7.40;1.60;;;;;;;20.07;68.43;101751.81;5200476;28;20029;-74
2022/10/06 07:48:14;;;;;;;8.13;1.60;;;;;;;19.26;69.89;101758.88;5200032;28;20639;-73
2022/10/06 07:50:46;;;;;;;8.88;1.40;;;;;;;18.79;72.10;101755.13;5196756;28;20040;-73
2022/10/06 07:53:17;;;;;;;5.20;1.35;;;;;;;19.61;69.12;101762.34;5195960;28;20044;-73
2022/10/06 07:55:48;;;;;;;11.93;1.58;;;;;;;19.91;67.91;101761.53;5195306;28;20041;-73
2022/10/06 07:58:22;;;;;;;6.82;1.50;;;;;;;19.49;68.97;101769.16;5195229;28;20095;-74
2022/10/06 08:00:53;;;;;;;6.50;1.02;;;;;;;18.81;71.42;101768.31;5197774;28;20220;-74
2022/10/06 08:03:24;;;;;;;9.10;1.60;;;;;;;19.60;68.67;101758.81;5197012;28;20033;-73
2022/10/06 08:05:59;;;;;;;8.02;1.35;;;;;;;19.40;68.84;101769.63;5197221;28;20288;-72
2022/10/06 08:08:32;;;;;;;9.15;1.45;;;;;;;19.20;70.79;101764.53;5196543;28;20118;-73
2022/10/06 08:11:03;;;;;;;10.40;1.85;;;;;;;19.08;70.46;101775.72;5196359;28;20591;-74
2022/10/06 08:13:35;;;;;;;7.07;1.50;;;;;;;19.32;69.64;101774.50;5196348;28;20044;-73
2022/10/06 08:16:09;;;;;;;6.90;1.40;;;;;;;19.58;69.95;101773.13;5196612;28;20265;-73
2022/10/06 08:18:40;;;;;;;6.78;1.40;;;;;;;19.56;69.88;101773.19;5197026;28;20483;-73
2022/10/06 08:21:15;;;;;;;7.75;1.67;;;;;;;19.16;71.83;101786.84;5197121;28;20083;-73
2022/10/06 08:23:47;;;;;;;;;;;;;;;18.81;71.89;101795.69;5197328;28;20388;-74
2022/10/06 08:26:19;;;;;;;8.23;1.63;;;;;;;18.02;73.77;101796.06;5196994;28;20095;-73
2022/10/06 08:28:51;;;;;;;10.63;1.58;;;;;;;19.41;70.47;101799.69;5199874;28;20525;-73
2022/10/06 08:31:22;;;;;;;8.65;1.90;;;;;;;19.51;70.10;101808.84;5201538;28;20396;-74
2022/10/06 08:33:55;;;;;;;7.50;1.40;;;;;;;19.70;70.26;101809.59;5201485;28;20076;-73
2022/10/06 08:36:27;;;;;;;9.23;1.58;;;;;;;19.11;71.85;101815.31;5200688;28;20368;-72
2022/10/06 08:38:57;;;;;;;8.45;1.73;;;;;;;20.15;68.02;101817.75;5200518;28;20060;-73
2022/10/06 08:41:47;;;;;;;7.85;1.33;;;;;;;18.45;72.20;101832.81;5201042;28;20597;-74
2022/10/06 08:44:30;;;;;;;10.35;1.77;;;;;;;18.09;73.48;101842.47;5190871;28;20018;-73
2022/10/06 08:47:12;;;;;;;8.23;1.42;;;;;;;18.39;73.88;101836.66;5197932;28;20478;-73
2022/10/06 08:49:47;;;;;;;8.45;1.60;;;;;;;18.61;72.18;101832.03;5195863;28;20029;-74
2022/10/06 08:52:33;;;;;;;10.73;1.60;;;;;;;17.97;73.83;101833.31;5201245;28;20033;-73
2022/10/06 08:55:20;;;;;;;7.73;1.50;;;;;;;17.94;75.79;101841.38;5200933;28;20087;-73
2022/10/06 08:58:02;;;;;;;9.30;1.58;;;;;;;18.15;75.17;101842.19;5199922;28;20337;-73
2022/10/06 09:00:33;;;;;;;9.75;1.50;;;;;;;17.56;75.32;101851.94;5200572;28;20091;-73
2022/10/06 09:03:03;;;;;;;7.55;1.33;;;;;;;17.14;77.01;101851.13;5200861;28;20025;-73
2022/10/06 09:05:35;;;;;;;11.52;1.98;;;;;;;17.30;76.89;101852.19;5185387;28;20060;-73
2022/10/06 09:08:36;;;;;;;12.15;1.73;;;;;;;17.22;77.34;101854.28;5200025;28;20025;-72
2022/10/06 09:11:25;;;;;;;10.52;1.75;;;;;;;17.27;76.93;101852.31;5200997;28;20037;-73
2022/10/06 09:14:08;;;;;;;11.10;1.67;;;;;;;17.44;78.33;101852.47;5197200;28;20584;-73
2022/10/06 09:16:43;;;;;;;9.82;1.33;;;;;;;16.93;77.73;101857.28;5199194;28;20033;-73
2022/10/06 09:19:55;;;;;;;10.68;2.03;;;;;;;17.16;77.71;101862.50;5200303;28;20029;-73
2022/10/06 09:22:29;;;;;;;9.30;1.55;;;;;;;17.08;76.68;101856.66;5182491;28;20064;-73
2022/10/06 09:25:13;;;;;;;9.57;1.60;;;;;;;17.48;75.47;101859.38;5200285;28;20043;-73
2022/10/06 09:27:49;;;;;;;7.47;1.65;;;;;;;17.24;76.52;101857.72;5200331;28;20529;-73
2022/10/06 09:30:20;;;;;;;9.65;1.50;;;;;;;17.16;76.87;101873.06;5200498;28;20124;-73
2022/10/06 09:32:58;;;;;;;12.25;1.90;;;;;;;17.07;76.71;101865.50;5200533;28;20140;-73
2022/10/06 09:35:30;;;;;;;7.63;1.20;;;;;;;17.36;76.98;101868.69;5181900;28;20033;-73
2022/10/06 09:38:03;;;;;;;7.60;1.60;;;;;;;16.94;76.30;101874.88;5199085;28;20116;-73
2022/10/06 09:40:51;;;;;;;9.25;1.60;;;;;;;16.70;77.35;101875.84;5200362;28;20220;-73
2022/10/06 09:43:26;;;;;;;7.18;1.42;;;;;;;16.59;76.96;101883.31;5198022;28;20037;-73
2022/10/06 09:46:17;;;;;;;9.60;1.48;;;;;;;16.67;76.89;101891.81;5199765;28;20108;-73
2022/10/06 09:49:06;;;;;;;10.52;1.58;;;;;;;17.09;76.95;101887.44;5199318;28;20032;-73
2022/10/06 09:51:36;;;;;;;13.52;1.85;;;;;;;17.34;76.75;101888.19;5200197;28;20037;-73
2022/10/06 09:54:09;;;;;;;14.13;2.10;;;;;;;17.43;76.42;101890.41;5199271;28;20435;-73
2022/10/06 09:56:42;;;;;;;8.02;1.35;;;;;;;17.68;76.75;101896.38;5194639;28;20033;-73
2022/10/06 09:59:20;;;;;;;9.98;1.75;;;;;;;17.66;73.84;101898.22;5199298;28;20033;-73
2022/10/06 10:01:54;;;;;;;8.05;1.70;;;;;;;17.48;74.99;101902.50;5195070;28;20061;-73
2022/10/06 10:04:30;;;;;;;7.30;1.55;;;;;;;17.37;75.60;101910.06;5199930;28;20068;-73
2022/10/06 10:07:13;;;;;;;;;;;;;;;17.30;76.15;101910.34;5202550;28;20451;-73
2022/10/06 10:09:44;;;;;;;11.70;1.50;;;;;;;17.07;74.67;101913.94;5201204;28;20690;-73
2022/10/06 10:12:31;;;;;;;10.52;1.70;;;;;;;17.43;75.43;101923.00;5200966;28;20057;-73
2022/10/06 10:15:21;;;;;;;9.90;1.50;;;;;;;17.39;73.56;101910.84;5200799;28;20025;-73
2022/10/06 10:17:55;;;;;;;7.97;1.33;;;;;;;17.20;72.25;101924.84;5200310;28;20032;-73
2022/10/06 10:20:33;;;;;;;12.20;1.60;;;;;;;17.08;72.89;101935.91;5201895;28;20041;-73
2022/10/06 10:23:18;;;;;;;8.50;1.60;;;;;;;17.20;73.86;101920.44;5202168;28;20025;-73
2022/10/06 10:25:54;;;;;;;6.07;1.35;;;;;;;17.21;74.27;101922.16;5199291;28;20102;-73
2022/10/06 10:28:41;;;;;;;10.55;1.50;;;;;;;17.17;74.27;101922.34;5201333;28;20075;-73
2022/10/06 10:31:24;;;;;;;7.82;1.50;;;;;;;17.31;73.95;101909.41;5200917;28;20437;-73
2022/10/06 10:34:15;;;;;;;6.80;1.38;;;;;;;17.37;72.53;101911.84;5198747;28;20033;-73
2022/10/06 10:36:57;;;;;;;7.18;1.00;;;;;;;17.44;73.57;101908.00;5200619;28;20037;-73
2022/10/06 10:39:32;;;;;;;5.57;1.10;;;;;;;17.24;71.91;101919.38;5201562;28;20526;-73
2022/10/06 10:42:12;;;;;;;4.97;0.90;;;;;;;17.21;71.38;101926.56;5201615;28;20029;-73
2022/10/06 10:44:53;;;;;;;8.70;1.20;;;;;;;17.08;71.38;101931.50;5201675;28;20037;-73
2022/10/06 10:47:30;;;;;;;5.85;1.00;;;;;;;17.18;71.51;101932.00;5200484;28;20053;-73
2022/10/06 10:50:03;;;;;;;7.47;1.38;;;;;;;17.19;72.38;101928.41;5200287;28;20438;-73
2022/10/06 10:52:41;;;;;;;7.78;1.30;;;;;;;17.23;73.25;101935.28;5200911;28;20102;-73
2022/10/06 10:55:20;;;;;;;8.50;1.33;;;;;;;17.20;73.40;101935.44;5197606;28;20029;-73
2022/10/06 10:57:54;;;;;;;7.72;1.10;;;;;;;16.97;72.10;101938.16;5200539;28;20147;-73
2022/10/06 11:00:29;;;;;;;6.13;1.23;;;;;;;17.12;73.62;101932.25;5201028;28;20311;-73
2022/10/06 11:03:00;;;;;;;10.07;1.60;;;;;;;17.32;73.09;101934.94;5200686;28;20026;-73
2022/10/06 11:05:49;;;;;;;8.02;1.40;;;;;;;17.11;71.27;101936.66;5201078;28;20511;-73
2022/10/06 11:08:58;;;;;;;7.65;1.08;;;;;;;17.29;72.29;101925.31;5199129;28;20064;-73
2022/10/06 11:11:52;;;;;;;7.28;1.17;;;;;;;17.37;70.91;101930.34;5200608;28;20120;-73
2022/10/06 11:14:58;;;;;;;7.93;1.13;;;;;;;17.37;70.80;101928.56;5199739;28;20156;-73
2022/10/06 11:17:45;;;;;;;7.38;1.20;;;;;;;17.39;71.62;101931.13;5193345;28;20045;-73
2022/10/06 11:20:49;;;;;;;5.47;1.08;;;;;;;17.35;70.66;101924.25;5200517;28;20033;-73
2022/10/06 11:23:35;;;;;;;7.72;1.15;;;;;;;17.05;70.55;101939.56;5198665;28;20025;-73
2022/10/06 11:26:18;;;;;;;;;;;;;;;17.16;70.79;101936.47;5198825;28;20546;-72
2022/10/06 11:28:59;;;;;;;6.07;1.20;;;;;;;17.37;71.00;101932.97;5196352;28;20588;-73
2022/10/06 11:31:34;;;;;;;8.93;1.30;;;;;;;17.43;72.04;101932.72;5190666;28;20206;-73
2022/10/06 11:34:05;;;;;;;7.30;1.33;;;;;;;17.38;72.01;101945.28;5188202;28;20145;-73
2022/10/06 11:36:43;;;;;;;5.05;0.88;;;;;;;17.51;70.80;101938.56;5190496;28;20483;-72
2022/10/06 11:39:35;;;;;;;6.20;1.40;;;;;;;17.30;69.79;101944.72;5196288;28;20434;-73
2022/10/06 11:42:29;;;;;;;7.72;1.45;;;;;;;17.23;69.63;101940.56;5200391;28;20112;-73
2022/10/06 11:45:13;;;;;;;5.65;0.98;;;;;;;17.22;70.72;101949.44;5200037;28;20033;-72
2022/10/06 11:47:55;;;;;;;5.22;1.15;;;;;;;17.04;70.64;101939.59;5200084;28;20017;-72
2022/10/06 11:50:35;;;;;;;6.45;1.10;;;;;;;16.93;70.58;101947.09;5199617;28;20037;-73
2022/10/06 11:53:25;;;;;;;7.35;1.30;;;;;;;16.74;70.35;101946.09;5200011;28;20033;-73
2022/10/06 11:56:17;;;;;;;5.93;1.08;;;;;;;16.93;71.68;101947.09;5200774;28;20021;-73
2022/10/06 11:58:50;;;;;;;4.70;1.02;;;;;;;17.04;70.99;101937.84;5199661;28;20025;-73
2022/10/06 12:01:26;;;;;;;8.00;1.20;;;;;;;17.11;70.47;101941.09;5199483;28;20029;-73
2022/10/06 12:04:14;;;;;;;5.53;1.23;;;;;;;17.35;70.87;101945.41;5200592;28;20440;-73